Hovedside
METAR-TAF:

METAR-TAF

Lufthavner :

Liepāja, Latvia

Liepāja internasjonale lufthavn

breddegrad: 56-31N, lengdegrad: 021-05E, høyde over havet: 5 m

Gjeldene værobservasjon

Denne rapporten ble laget for 22 minutter siden, klokken 05:50 UTC
Flau vind
Temperatur -1°C
Luftfuktighet 100%
Trykk 1025 hPa
Sikt 10 km eller mer

METAR: EVLA 240550Z AUTO 00000KT 9999 NCD M01/M01 Q1025

Tid: 08:12 (06:12 UTC)

Varsel

Denne rapporten ble laget for 1 time og 10 minutter siden, klokken 05:02 UTC
Varsel gyldig fra 24. klokken 06 UTC til 24. klokken 15 UTC
Vind 7 kt fra Nordvest
Sikt 10 km eller mer
ingen skyer under 1500 m og ingen bygeskyer

TAF: EVLA 240502Z 2406/2415 32007KT CAVOK

Værobservasjoner og værvarsel for over 4000 flyplasser (METAR- og TAF-rapporter).

Tilgjengelige stasjoner er representert av de røde og gule prikkene på kartet.

Hold musepekeren over prikken for å se navnet på stasjonen.

Klikk så for å se værobservasjoner og -varsler.

For å forandre kartet kan du klikke på den grønne knappen med svart kryss for å zoome inn, på den grønne knappen med strek for å zoome ut, eller på de grønne pilene for å se tilstøtende kart.


METAR-TAF: